sensor_id;sensor_type;location;lat;lon;timestamp;pressure;altitude;pressure_sealevel;temperature;humidity
64292;BME280;50628;51.008;13.658;2022-10-16T00:00:41;99485.44;;;12.22;100.00
64292;BME280;50628;51.008;13.658;2022-10-16T00:05:44;99494.38;;;12.19;100.00
64292;BME280;50628;51.008;13.658;2022-10-16T00:10:47;99490.53;;;12.13;100.00
64292;BME280;50628;51.008;13.658;2022-10-16T00:15:49;99498.25;;;12.05;100.00
64292;BME280;50628;51.008;13.658;2022-10-16T00:20:51;99510.72;;;12.02;100.00
64292;BME280;50628;51.008;13.658;2022-10-16T00:25:59;99504.41;;;12.04;100.00
64292;BME280;50628;51.008;13.658;2022-10-16T00:31:04;99500.84;;;11.96;100.00
64292;BME280;50628;51.008;13.658;2022-10-16T00:36:07;99506.63;;;11.99;100.00
64292;BME280;50628;51.008;13.658;2022-10-16T00:41:13;99509.66;;;11.95;100.00
64292;BME280;50628;51.008;13.658;2022-10-16T00:46:18;99524.59;;;11.83;100.00
64292;BME280;50628;51.008;13.658;2022-10-16T00:51:25;99535.56;;;11.67;100.00
64292;BME280;50628;51.008;13.658;2022-10-16T00:56:31;99542.69;;;11.75;100.00
64292;BME280;50628;51.008;13.658;2022-10-16T01:01:33;99537.91;;;11.80;100.00
64292;BME280;50628;51.008;13.658;2022-10-16T01:06:41;99533.09;;;11.75;100.00
64292;BME280;50628;51.008;13.658;2022-10-16T01:11:51;99530.88;;;11.70;100.00
64292;BME280;50628;51.008;13.658;2022-10-16T01:17:01;99519.34;;;11.63;100.00
64292;BME280;50628;51.008;13.658;2022-10-16T01:22:07;99535.41;;;11.68;100.00
64292;BME280;50628;51.008;13.658;2022-10-16T01:27:13;99544.63;;;11.73;100.00
64292;BME280;50628;51.008;13.658;2022-10-16T01:32:24;99545.00;;;11.68;100.00
64292;BME280;50628;51.008;13.658;2022-10-16T01:37:34;99547.75;;;11.76;100.00
64292;BME280;50628;51.008;13.658;2022-10-16T01:42:41;99561.06;;;11.73;100.00
64292;BME280;50628;51.008;13.658;2022-10-16T01:47:44;99556.84;;;11.72;100.00
64292;BME280;50628;51.008;13.658;2022-10-16T01:52:48;99539.69;;;11.79;100.00
64292;BME280;50628;51.008;13.658;2022-10-16T01:57:53;99532.84;;;11.98;100.00
64292;BME280;50628;51.008;13.658;2022-10-16T02:02:58;99547.53;;;12.08;100.00
64292;BME280;50628;51.008;13.658;2022-10-16T02:08:03;99539.97;;;11.96;100.00
64292;BME280;50628;51.008;13.658;2022-10-16T02:13:09;99555.50;;;11.97;100.00
64292;BME280;50628;51.008;13.658;2022-10-16T02:18:12;99561.38;;;12.09;100.00
64292;BME280;50628;51.008;13.658;2022-10-16T02:23:19;99552.75;;;11.89;100.00
64292;BME280;50628;51.008;13.658;2022-10-16T02:28:29;99551.09;;;11.98;100.00
64292;BME280;50628;51.008;13.658;2022-10-16T02:33:36;99552.88;;;12.17;100.00
64292;BME280;50628;51.008;13.658;2022-10-16T02:38:40;99542.56;;;12.34;100.00
64292;BME280;50628;51.008;13.658;2022-10-16T02:43:43;99554.78;;;12.44;100.00
64292;BME280;50628;51.008;13.658;2022-10-16T02:48:45;99550.38;;;12.34;100.00
64292;BME280;50628;51.008;13.658;2022-10-16T02:53:47;99549.25;;;12.47;100.00
64292;BME280;50628;51.008;13.658;2022-10-16T02:58:50;99538.56;;;12.40;100.00
64292;BME280;50628;51.008;13.658;2022-10-16T03:03:52;99539.00;;;12.26;100.00
64292;BME280;50628;51.008;13.658;2022-10-16T03:08:54;99537.63;;;12.22;100.00
64292;BME280;50628;51.008;13.658;2022-10-16T03:13:57;99550.81;;;12.30;100.00
64292;BME280;50628;51.008;13.658;2022-10-16T03:18:59;99565.09;;;12.26;100.00
64292;BME280;50628;51.008;13.658;2022-10-16T03:24:01;99570.03;;;12.29;100.00
64292;BME280;50628;51.008;13.658;2022-10-16T03:29:04;99572.66;;;12.19;100.00
64292;BME280;50628;51.008;13.658;2022-10-16T03:34:06;99568.97;;;12.12;100.00
64292;BME280;50628;51.008;13.658;2022-10-16T03:39:08;99567.44;;;12.09;100.00
64292;BME280;50628;51.008;13.658;2022-10-16T03:44:12;99580.34;;;12.21;100.00
64292;BME280;50628;51.008;13.658;2022-10-16T03:49:14;99585.84;;;12.18;100.00
64292;BME280;50628;51.008;13.658;2022-10-16T03:54:15;99585.16;;;12.16;100.00
64292;BME280;50628;51.008;13.658;2022-10-16T03:59:18;99589.69;;;12.13;100.00
64292;BME280;50628;51.008;13.658;2022-10-16T04:04:20;99587.91;;;12.24;100.00
64292;BME280;50628;51.008;13.658;2022-10-16T04:09:22;99603.72;;;12.22;100.00
64292;BME280;50628;51.008;13.658;2022-10-16T04:14:25;99603.69;;;12.12;100.00
64292;BME280;50628;51.008;13.658;2022-10-16T04:19:27;99612.75;;;12.18;100.00
64292;BME280;50628;51.008;13.658;2022-10-16T04:24:28;99616.56;;;12.04;100.00
64292;BME280;50628;51.008;13.658;2022-10-16T04:29:31;99599.69;;;11.99;100.00
64292;BME280;50628;51.008;13.658;2022-10-16T04:34:33;99613.03;;;12.05;100.00
64292;BME280;50628;51.008;13.658;2022-10-16T04:39:35;99618.66;;;12.10;100.00
64292;BME280;50628;51.008;13.658;2022-10-16T04:44:38;99622.91;;;12.11;100.00
64292;BME280;50628;51.008;13.658;2022-10-16T04:49:39;99627.31;;;12.21;100.00
64292;BME280;50628;51.008;13.658;2022-10-16T04:54:41;99620.59;;;12.28;100.00
64292;BME280;50628;51.008;13.658;2022-10-16T04:59:46;99605.63;;;12.20;100.00
64292;BME280;50628;51.008;13.658;2022-10-16T05:04:48;99613.97;;;12.14;100.00
64292;BME280;50628;51.008;13.658;2022-10-16T05:09:50;99620.16;;;12.13;100.00
64292;BME280;50628;51.008;13.658;2022-10-16T05:14:53;99627.59;;;12.08;100.00
64292;BME280;50628;51.008;13.658;2022-10-16T05:19:58;99633.34;;;12.21;100.00
64292;BME280;50628;51.008;13.658;2022-10-16T05:25:00;99634.16;;;12.22;100.00
64292;BME280;50628;51.008;13.658;2022-10-16T05:30:04;99642.69;;;12.24;100.00
64292;BME280;50628;51.008;13.658;2022-10-16T05:35:06;99634.44;;;12.19;100.00
64292;BME280;50628;51.008;13.658;2022-10-16T05:40:09;99639.25;;;12.13;100.00
64292;BME280;50628;51.008;13.658;2022-10-16T05:45:12;99654.38;;;12.20;100.00
64292;BME280;50628;51.008;13.658;2022-10-16T05:50:14;99659.31;;;12.23;100.00
64292;BME280;50628;51.008;13.658;2022-10-16T05:55:15;99677.03;;;12.39;100.00
64292;BME280;50628;51.008;13.658;2022-10-16T06:00:19;99672.50;;;12.31;100.00
64292;BME280;50628;51.008;13.658;2022-10-16T06:05:20;99675.66;;;12.34;100.00
64292;BME280;50628;51.008;13.658;2022-10-16T06:10:22;99673.31;;;12.31;100.00
64292;BME280;50628;51.008;13.658;2022-10-16T06:15:25;99687.06;;;12.33;100.00
64292;BME280;50628;51.008;13.658;2022-10-16T06:20:27;99681.03;;;12.52;100.00
64292;BME280;50628;51.008;13.658;2022-10-16T06:25:28;99697.81;;;12.50;100.00
64292;BME280;50628;51.008;13.658;2022-10-16T06:30:31;99707.97;;;12.53;100.00
64292;BME280;50628;51.008;13.658;2022-10-16T06:35:33;99699.28;;;12.72;100.00
64292;BME280;50628;51.008;13.658;2022-10-16T06:40:35;99707.41;;;12.88;100.00
64292;BME280;50628;51.008;13.658;2022-10-16T06:45:38;99715.06;;;13.09;100.00
64292;BME280;50628;51.008;13.658;2022-10-16T06:50:39;99709.81;;;13.19;100.00
64292;BME280;50628;51.008;13.658;2022-10-16T06:55:41;99724.25;;;13.33;100.00
64292;BME280;50628;51.008;13.658;2022-10-16T07:00:44;99733.34;;;13.38;100.00
64292;BME280;50628;51.008;13.658;2022-10-16T07:05:46;99725.50;;;13.29;100.00
64292;BME280;50628;51.008;13.658;2022-10-16T07:10:48;99727.91;;;13.50;100.00
64292;BME280;50628;51.008;13.658;2022-10-16T07:15:51;99730.31;;;13.71;100.00
64292;BME280;50628;51.008;13.658;2022-10-16T07:20:52;99739.22;;;13.78;100.00
64292;BME280;50628;51.008;13.658;2022-10-16T07:25:54;99760.72;;;13.81;100.00
64292;BME280;50628;51.008;13.658;2022-10-16T07:31:01;99776.59;;;13.98;100.00
64292;BME280;50628;51.008;13.658;2022-10-16T07:36:04;99777.63;;;13.87;100.00
64292;BME280;50628;51.008;13.658;2022-10-16T07:41:08;99790.25;;;14.01;100.00
64292;BME280;50628;51.008;13.658;2022-10-16T07:46:12;99791.25;;;14.18;100.00
64292;BME280;50628;51.008;13.658;2022-10-16T07:51:16;99795.69;;;14.36;100.00
64292;BME280;50628;51.008;13.658;2022-10-16T07:56:20;99799.75;;;14.58;100.00
64292;BME280;50628;51.008;13.658;2022-10-16T08:01:24;99792.25;;;14.81;100.00
64292;BME280;50628;51.008;13.658;2022-10-16T08:06:26;99772.88;;;15.09;100.00
64292;BME280;50628;51.008;13.658;2022-10-16T08:11:27;99763.41;;;15.17;100.00
64292;BME280;50628;51.008;13.658;2022-10-16T08:16:31;99776.59;;;15.25;100.00
64292;BME280;50628;51.008;13.658;2022-10-16T08:21:32;99771.09;;;15.36;100.00
64292;BME280;50628;51.008;13.658;2022-10-16T08:26:34;99772.63;;;15.47;100.00
64292;BME280;50628;51.008;13.658;2022-10-16T08:31:37;99773.31;;;15.75;100.00
64292;BME280;50628;51.008;13.658;2022-10-16T08:36:39;99786.03;;;15.88;100.00
64292;BME280;50628;51.008;13.658;2022-10-16T08:41:59;99775.72;;;16.02;100.00
64292;BME280;50628;51.008;13.658;2022-10-16T08:47:13;99766.66;;;16.31;100.00
64292;BME280;50628;51.008;13.658;2022-10-16T08:52:18;99775.41;;;16.56;100.00
64292;BME280;50628;51.008;13.658;2022-10-16T08:57:22;99769.81;;;16.67;100.00
64292;BME280;50628;51.008;13.658;2022-10-16T09:02:32;99765.13;;;17.04;100.00
64292;BME280;50628;51.008;13.658;2022-10-16T09:07:40;99750.28;;;17.36;100.00
64292;BME280;50628;51.008;13.658;2022-10-16T09:12:48;99746.97;;;18.06;100.00
64292;BME280;50628;51.008;13.658;2022-10-16T09:17:58;99739.31;;;18.73;100.00
64292;BME280;50628;51.008;13.658;2022-10-16T09:23:13;99741.28;;;19.32;100.00
64292;BME280;50628;51.008;13.658;2022-10-16T09:28:16;99752.16;;;19.52;100.00
64292;BME280;50628;51.008;13.658;2022-10-16T09:33:21;99754.22;;;19.42;100.00
64292;BME280;50628;51.008;13.658;2022-10-16T09:38:27;99752.25;;;19.44;100.00
64292;BME280;50628;51.008;13.658;2022-10-16T09:43:34;99763.19;;;19.56;100.00
64292;BME280;50628;51.008;13.658;2022-10-16T09:48:43;99765.66;;;19.72;100.00
64292;BME280;50628;51.008;13.658;2022-10-16T09:53:46;99768.94;;;19.74;100.00
64292;BME280;50628;51.008;13.658;2022-10-16T09:58:50;99775.94;;;19.82;100.00
64292;BME280;50628;51.008;13.658;2022-10-16T10:03:55;99775.84;;;19.90;100.00
64292;BME280;50628;51.008;13.658;2022-10-16T10:09:06;99785.31;;;19.99;100.00
64292;BME280;50628;51.008;13.658;2022-10-16T10:14:27;99783.75;;;20.05;100.00
64292;BME280;50628;51.008;13.658;2022-10-16T10:19:39;99788.59;;;20.01;100.00
64292;BME280;50628;51.008;13.658;2022-10-16T10:24:41;99797.84;;;20.27;100.00
64292;BME280;50628;51.008;13.658;2022-10-16T10:29:52;99786.69;;;20.46;100.00
64292;BME280;50628;51.008;13.658;2022-10-16T10:35:07;99801.72;;;20.46;100.00
64292;BME280;50628;51.008;13.658;2022-10-16T10:40:26;99809.00;;;20.59;100.00
64292;BME280;50628;51.008;13.658;2022-10-16T10:45:38;99813.69;;;20.78;100.00
64292;BME280;50628;51.008;13.658;2022-10-16T10:50:48;99809.53;;;21.12;100.00
64292;BME280;50628;51.008;13.658;2022-10-16T10:55:54;99809.50;;;21.33;100.00
64292;BME280;50628;51.008;13.658;2022-10-16T11:01:02;99820.81;;;21.21;100.00
64292;BME280;50628;51.008;13.658;2022-10-16T11:06:08;99816.53;;;20.98;100.00
64292;BME280;50628;51.008;13.658;2022-10-16T11:11:17;99817.28;;;21.13;100.00
64292;BME280;50628;51.008;13.658;2022-10-16T11:16:25;99824.84;;;21.16;100.00
64292;BME280;50628;51.008;13.658;2022-10-16T11:21:34;99816.53;;;21.20;100.00
64292;BME280;50628;51.008;13.658;2022-10-16T11:26:41;99815.69;;;21.19;100.00
64292;BME280;50628;51.008;13.658;2022-10-16T11:31:47;99815.50;;;21.21;100.00
64292;BME280;50628;51.008;13.658;2022-10-16T11:36:56;99827.31;;;21.18;100.00
64292;BME280;50628;51.008;13.658;2022-10-16T11:42:02;99822.31;;;21.30;100.00
64292;BME280;50628;51.008;13.658;2022-10-16T11:47:12;99821.69;;;21.28;100.00
64292;BME280;50628;51.008;13.658;2022-10-16T11:52:22;99820.00;;;22.11;100.00
64292;BME280;50628;51.008;13.658;2022-10-16T11:57:28;99839.03;;;21.87;100.00
64292;BME280;50628;51.008;13.658;2022-10-16T12:02:44;99834.28;;;22.10;100.00
64292;BME280;50628;51.008;13.658;2022-10-16T12:07:56;99837.53;;;22.54;100.00
64292;BME280;50628;51.008;13.658;2022-10-16T12:13:01;99837.91;;;22.44;100.00
64292;BME280;50628;51.008;13.658;2022-10-16T12:18:03;99835.41;;;22.29;100.00
64292;BME280;50628;51.008;13.658;2022-10-16T12:23:06;99839.13;;;22.00;100.00
64292;BME280;50628;51.008;13.658;2022-10-16T12:28:20;99834.69;;;21.72;100.00
64292;BME280;50628;51.008;13.658;2022-10-16T12:33:24;99846.09;;;21.79;100.00
64292;BME280;50628;51.008;13.658;2022-10-16T12:38:31;99840.31;;;22.32;100.00
64292;BME280;50628;51.008;13.658;2022-10-16T12:43:39;99854.66;;;22.10;100.00
64292;BME280;50628;51.008;13.658;2022-10-16T12:48:44;99851.66;;;22.19;100.00
64292;BME280;50628;51.008;13.658;2022-10-16T12:53:58;99863.56;;;22.02;100.00
64292;BME280;50628;51.008;13.658;2022-10-16T12:59:07;99855.91;;;22.14;100.00
64292;BME280;50628;51.008;13.658;2022-10-16T13:04:36;99861.72;;;21.96;100.00
64292;BME280;50628;51.008;13.658;2022-10-16T13:09:57;99863.91;;;21.86;100.00
64292;BME280;50628;51.008;13.658;2022-10-16T13:15:22;99867.91;;;21.75;100.00
64292;BME280;50628;51.008;13.658;2022-10-16T13:20:31;99865.44;;;21.73;100.00
64292;BME280;50628;51.008;13.658;2022-10-16T13:25:49;99866.72;;;21.77;100.00
64292;BME280;50628;51.008;13.658;2022-10-16T13:30:57;99856.88;;;22.06;100.00
64292;BME280;50628;51.008;13.658;2022-10-16T13:36:00;99854.78;;;21.95;100.00
64292;BME280;50628;51.008;13.658;2022-10-16T13:41:11;99865.53;;;21.58;100.00
64292;BME280;50628;51.008;13.658;2022-10-16T13:46:17;99867.88;;;21.47;100.00
64292;BME280;50628;51.008;13.658;2022-10-16T13:51:19;99878.78;;;21.58;100.00
64292;BME280;50628;51.008;13.658;2022-10-16T13:56:24;99880.41;;;21.59;100.00
64292;BME280;50628;51.008;13.658;2022-10-16T14:01:29;99883.84;;;21.53;100.00
64292;BME280;50628;51.008;13.658;2022-10-16T14:06:32;99879.97;;;21.56;100.00
64292;BME280;50628;51.008;13.658;2022-10-16T14:11:43;99884.72;;;21.39;100.00
64292;BME280;50628;51.008;13.658;2022-10-16T14:16:47;99887.56;;;21.37;100.00
64292;BME280;50628;51.008;13.658;2022-10-16T14:21:50;99899.09;;;21.30;100.00
64292;BME280;50628;51.008;13.658;2022-10-16T14:26:53;99897.19;;;21.24;100.00
64292;BME280;50628;51.008;13.658;2022-10-16T14:31:57;99890.44;;;21.21;100.00
64292;BME280;50628;51.008;13.658;2022-10-16T14:37:02;99897.06;;;21.10;100.00
64292;BME280;50628;51.008;13.658;2022-10-16T14:42:15;99900.66;;;21.03;100.00
64292;BME280;50628;51.008;13.658;2022-10-16T14:47:19;99902.28;;;21.04;100.00
64292;BME280;50628;51.008;13.658;2022-10-16T14:52:25;99909.03;;;21.06;100.00
64292;BME280;50628;51.008;13.658;2022-10-16T14:57:30;99917.41;;;21.10;100.00
64292;BME280;50628;51.008;13.658;2022-10-16T15:02:34;99912.84;;;21.40;100.00
64292;BME280;50628;51.008;13.658;2022-10-16T15:07:36;99922.09;;;22.77;100.00
64292;BME280;50628;51.008;13.658;2022-10-16T15:12:39;99933.75;;;23.84;100.00
64292;BME280;50628;51.008;13.658;2022-10-16T15:17:41;99933.50;;;24.83;100.00
64292;BME280;50628;51.008;13.658;2022-10-16T15:22:43;99948.75;;;24.70;100.00
64292;BME280;50628;51.008;13.658;2022-10-16T15:27:46;99950.13;;;22.93;100.00
64292;BME280;50628;51.008;13.658;2022-10-16T15:32:48;99949.41;;;22.01;100.00
64292;BME280;50628;51.008;13.658;2022-10-16T15:37:50;99964.78;;;21.41;100.00
64292;BME280;50628;51.008;13.658;2022-10-16T15:42:53;99971.16;;;21.10;100.00
64292;BME280;50628;51.008;13.658;2022-10-16T15:47:55;99975.97;;;20.70;100.00
64292;BME280;50628;51.008;13.658;2022-10-16T15:52:56;99985.56;;;20.04;100.00
64292;BME280;50628;51.008;13.658;2022-10-16T15:57:59;99982.41;;;19.71;100.00
64292;BME280;50628;51.008;13.658;2022-10-16T16:03:01;99985.69;;;19.41;100.00
64292;BME280;50628;51.008;13.658;2022-10-16T16:08:03;99997.59;;;19.37;100.00
64292;BME280;50628;51.008;13.658;2022-10-16T16:13:06;100002.81;;;19.14;100.00
64292;BME280;50628;51.008;13.658;2022-10-16T16:18:08;99999.78;;;18.94;100.00
64292;BME280;50628;51.008;13.658;2022-10-16T16:23:10;100005.66;;;18.57;100.00
64292;BME280;50628;51.008;13.658;2022-10-16T16:28:13;100019.88;;;18.40;100.00
64292;BME280;50628;51.008;13.658;2022-10-16T16:33:15;100026.31;;;18.21;100.00
64292;BME280;50628;51.008;13.658;2022-10-16T16:38:16;100042.78;;;17.90;100.00
64292;BME280;50628;51.008;13.658;2022-10-16T16:43:22;100060.00;;;17.76;100.00
64292;BME280;50628;51.008;13.658;2022-10-16T16:48:24;100072.25;;;17.35;100.00
64292;BME280;50628;51.008;13.658;2022-10-16T16:53:26;100084.03;;;17.22;100.00
64292;BME280;50628;51.008;13.658;2022-10-16T16:58:29;100096.97;;;17.07;100.00
64292;BME280;50628;51.008;13.658;2022-10-16T17:03:33;100105.31;;;17.03;100.00
64292;BME280;50628;51.008;13.658;2022-10-16T17:08:36;100113.59;;;16.64;100.00
64292;BME280;50628;51.008;13.658;2022-10-16T17:13:39;100116.63;;;16.51;100.00
64292;BME280;50628;51.008;13.658;2022-10-16T17:18:41;100129.56;;;16.44;100.00
64292;BME280;50628;51.008;13.658;2022-10-16T17:23:43;100151.69;;;16.42;100.00
64292;BME280;50628;51.008;13.658;2022-10-16T17:28:50;100153.81;;;16.38;100.00
64292;BME280;50628;51.008;13.658;2022-10-16T17:33:52;100151.09;;;16.30;100.00
64292;BME280;50628;51.008;13.658;2022-10-16T17:38:54;100160.09;;;16.10;100.00
64292;BME280;50628;51.008;13.658;2022-10-16T17:43:57;100163.63;;;16.00;100.00
64292;BME280;50628;51.008;13.658;2022-10-16T17:48:59;100177.34;;;15.94;100.00
64292;BME280;50628;51.008;13.658;2022-10-16T17:54:01;100173.59;;;15.97;100.00
64292;BME280;50628;51.008;13.658;2022-10-16T17:59:04;100183.13;;;15.98;100.00
64292;BME280;50628;51.008;13.658;2022-10-16T18:04:08;100192.56;;;15.91;100.00
64292;BME280;50628;51.008;13.658;2022-10-16T18:09:14;100200.50;;;15.81;100.00
64292;BME280;50628;51.008;13.658;2022-10-16T18:14:18;100207.72;;;15.69;100.00
64292;BME280;50628;51.008;13.658;2022-10-16T18:19:20;100218.47;;;15.66;100.00
64292;BME280;50628;51.008;13.658;2022-10-16T18:24:23;100221.00;;;15.58;100.00
64292;BME280;50628;51.008;13.658;2022-10-16T18:29:27;100229.34;;;15.44;100.00
64292;BME280;50628;51.008;13.658;2022-10-16T18:34:28;100244.28;;;15.33;100.00
64292;BME280;50628;51.008;13.658;2022-10-16T18:39:31;100239.22;;;15.22;100.00
64292;BME280;50628;51.008;13.658;2022-10-16T18:44:37;100239.34;;;15.21;100.00
64292;BME280;50628;51.008;13.658;2022-10-16T18:49:39;100231.06;;;15.06;100.00
64292;BME280;50628;51.008;13.658;2022-10-16T18:54:41;100238.13;;;14.96;100.00
64292;BME280;50628;51.008;13.658;2022-10-16T18:59:49;100240.47;;;14.89;100.00
64292;BME280;50628;51.008;13.658;2022-10-16T19:04:51;100238.28;;;14.75;100.00
64292;BME280;50628;51.008;13.658;2022-10-16T19:09:52;100241.59;;;14.67;100.00
64292;BME280;50628;51.008;13.658;2022-10-16T19:14:55;100255.25;;;14.61;100.00
64292;BME280;50628;51.008;13.658;2022-10-16T19:19:57;100252.75;;;14.79;100.00
64292;BME280;50628;51.008;13.658;2022-10-16T19:24:59;100260.91;;;14.76;100.00
64292;BME280;50628;51.008;13.658;2022-10-16T19:30:02;100261.19;;;14.82;100.00
64292;BME280;50628;51.008;13.658;2022-10-16T19:35:05;100269.88;;;14.83;100.00
64292;BME280;50628;51.008;13.658;2022-10-16T19:40:09;100271.94;;;14.69;100.00
64292;BME280;50628;51.008;13.658;2022-10-16T19:45:13;100294.94;;;14.56;100.00
64292;BME280;50628;51.008;13.658;2022-10-16T19:50:14;100291.38;;;14.57;100.00
64292;BME280;50628;51.008;13.658;2022-10-16T19:55:18;100286.41;;;14.64;100.00
64292;BME280;50628;51.008;13.658;2022-10-16T20:00:21;100280.75;;;14.59;100.00
64292;BME280;50628;51.008;13.658;2022-10-16T20:05:23;100286.00;;;14.68;100.00
64292;BME280;50628;51.008;13.658;2022-10-16T20:10:25;100282.69;;;14.57;100.00
64292;BME280;50628;51.008;13.658;2022-10-16T20:15:28;100292.47;;;14.55;100.00
64292;BME280;50628;51.008;13.658;2022-10-16T20:20:30;100296.69;;;14.46;100.00
64292;BME280;50628;51.008;13.658;2022-10-16T20:25:33;100304.97;;;14.51;100.00
64292;BME280;50628;51.008;13.658;2022-10-16T20:30:38;100299.03;;;14.39;100.00
64292;BME280;50628;51.008;13.658;2022-10-16T20:35:42;100300.00;;;14.48;100.00
64292;BME280;50628;51.008;13.658;2022-10-16T20:40:46;100298.25;;;14.58;100.00
64292;BME280;50628;51.008;13.658;2022-10-16T20:45:58;100300.47;;;14.63;100.00
64292;BME280;50628;51.008;13.658;2022-10-16T20:51:09;100307.22;;;14.65;100.00
64292;BME280;50628;51.008;13.658;2022-10-16T20:56:11;100306.81;;;14.60;100.00
64292;BME280;50628;51.008;13.658;2022-10-16T21:01:18;100314.25;;;14.55;100.00
64292;BME280;50628;51.008;13.658;2022-10-16T21:06:20;100325.03;;;14.31;100.00
64292;BME280;50628;51.008;13.658;2022-10-16T21:11:24;100329.84;;;14.16;100.00
64292;BME280;50628;51.008;13.658;2022-10-16T21:16:28;100342.25;;;14.24;100.00
64292;BME280;50628;51.008;13.658;2022-10-16T21:21:31;100345.41;;;14.18;100.00
64292;BME280;50628;51.008;13.658;2022-10-16T21:26:33;100356.97;;;14.15;100.00
64292;BME280;50628;51.008;13.658;2022-10-16T21:31:36;100366.69;;;14.03;100.00
64292;BME280;50628;51.008;13.658;2022-10-16T21:36:39;100364.06;;;14.03;100.00
64292;BME280;50628;51.008;13.658;2022-10-16T21:41:43;100359.38;;;13.97;100.00
64292;BME280;50628;51.008;13.658;2022-10-16T21:46:46;100370.38;;;13.91;100.00
64292;BME280;50628;51.008;13.658;2022-10-16T21:51:49;100368.44;;;13.72;100.00
64292;BME280;50628;51.008;13.658;2022-10-16T21:56:51;100369.31;;;13.40;100.00
64292;BME280;50628;51.008;13.658;2022-10-16T22:01:54;100366.41;;;13.55;100.00
64292;BME280;50628;51.008;13.658;2022-10-16T22:06:56;100367.69;;;13.60;100.00
64292;BME280;50628;51.008;13.658;2022-10-16T22:11:57;100364.09;;;13.40;100.00
64292;BME280;50628;51.008;13.658;2022-10-16T22:17:00;100368.91;;;13.24;100.00
64292;BME280;50628;51.008;13.658;2022-10-16T22:22:02;100377.00;;;13.21;100.00
64292;BME280;50628;51.008;13.658;2022-10-16T22:27:04;100383.34;;;13.07;100.00
64292;BME280;50628;51.008;13.658;2022-10-16T22:32:07;100386.38;;;12.91;100.00
64292;BME280;50628;51.008;13.658;2022-10-16T22:37:09;100392.97;;;13.07;100.00
64292;BME280;50628;51.008;13.658;2022-10-16T22:42:10;100392.00;;;13.08;100.00
64292;BME280;50628;51.008;13.658;2022-10-16T22:47:13;100368.00;;;13.14;100.00
64292;BME280;50628;51.008;13.658;2022-10-16T22:52:16;100375.38;;;13.09;100.00
64292;BME280;50628;51.008;13.658;2022-10-16T22:57:18;100379.81;;;12.97;100.00
64292;BME280;50628;51.008;13.658;2022-10-16T23:02:21;100381.03;;;12.93;100.00
64292;BME280;50628;51.008;13.658;2022-10-16T23:07:23;100384.63;;;12.81;100.00
64292;BME280;50628;51.008;13.658;2022-10-16T23:12:24;100388.88;;;12.82;100.00
64292;BME280;50628;51.008;13.658;2022-10-16T23:17:27;100387.34;;;12.79;100.00
64292;BME280;50628;51.008;13.658;2022-10-16T23:22:29;100395.69;;;12.62;100.00
64292;BME280;50628;51.008;13.658;2022-10-16T23:27:31;100402.91;;;12.69;100.00
64292;BME280;50628;51.008;13.658;2022-10-16T23:32:34;100414.06;;;12.83;100.00
64292;BME280;50628;51.008;13.658;2022-10-16T23:37:36;100402.31;;;12.77;100.00
64292;BME280;50628;51.008;13.658;2022-10-16T23:42:37;100414.66;;;12.86;100.00
64292;BME280;50628;51.008;13.658;2022-10-16T23:47:40;100408.59;;;12.86;100.00
64292;BME280;50628;51.008;13.658;2022-10-16T23:52:42;100403.00;;;12.79;100.00
64292;BME280;50628;51.008;13.658;2022-10-16T23:57:44;100399.47;;;12.80;100.00
